Archiv-/Tagesdaten

--Timestamp---	Temp	Chill	HIndex	Humid	Dewpt	Wind	HiWind	WindDir	Rain	Barom	        Solar	ET	UV
--------------	----	-----	------	-----	-----	----	------	-------	----	-----	        -----	--	--
20081017 00:05	6.6	5.4	6.6	89	4.9	6	11	270	0.00	1015.919	0	0.000	0
20081017 00:10	6.6	5.5	6.6	89	4.9	6	13	247	0.00	1016.055	0	0.000	0
20081017 00:15	6.6	5.5	6.6	89	4.9	6	14	247	0.00	1016.089	0	0.000	0
20081017 00:20	6.7	5.5	6.7	89	5.0	6	16	247	0.00	1016.089	0	0.000	0
20081017 00:25	6.6	6.6	6.6	89	4.9	5	10	247	0.00	1016.190	0	0.000	0
20081017 00:30	6.6	6.6	6.6	89	4.9	5	10	247	0.00	1016.394	0	0.000	0
20081017 00:35	6.7	6.7	6.7	89	5.0	3	8	270	0.00	1016.461	0	0.000	0
20081017 00:40	6.7	6.7	6.7	89	5.0	5	10	247	0.00	1016.597	0	0.000	0
20081017 00:45	6.7	6.7	6.7	89	5.0	2	6	247	0.00	1016.597	0	0.000	0
20081017 00:50	6.7	6.7	6.7	89	5.0	3	10	270	0.00	1016.698	0	0.000	0
20081017 00:55	6.7	6.7	6.7	89	5.0	5	14	247	0.00	1016.766	0	0.000	0
20081017 01:00	6.7	6.7	6.7	89	5.0	3	10	247	0.00	1016.868	0	0.000	0
20081017 01:05	6.7	6.7	6.7	90	5.2	3	8	247	0.00	1016.901	0	0.000	0
20081017 01:10	6.7	6.7	6.7	90	5.2	5	10	225	0.00	1016.800	0	0.000	0
20081017 01:15	6.8	6.8	6.8	90	5.3	5	14	247	0.00	1016.766	0	0.000	0
20081017 01:20	6.8	6.8	6.8	90	5.3	3	10	247	0.00	1016.766	0	0.000	0
20081017 01:25	6.8	6.8	6.8	90	5.3	5	11	225	0.00	1016.834	0	0.000	0
20081017 01:30	6.8	6.8	6.8	90	5.3	5	16	225	0.00	1016.969	0	0.000	0
20081017 01:35	6.8	6.8	6.8	90	5.3	3	8	270	0.00	1017.105	0	0.000	0
20081017 01:40	6.8	6.8	6.8	90	5.3	3	8	270	0.00	1017.139	0	0.000	0
20081017 01:45	6.8	6.8	6.8	90	5.3	5	11	247	0.20	1017.206	0	0.000	0
20081017 01:50	6.8	6.8	6.8	90	5.3	3	14	247	0.00	1017.274	0	0.000	0
20081017 01:55	6.9	6.9	6.9	90	5.4	5	13	247	0.00	1017.342	0	0.000	0
20081017 02:00	6.9	6.9	6.9	90	5.4	5	16	225	0.00	1017.342	0	0.000	0
20081017 02:05	6.9	6.9	6.9	90	5.4	5	8	270	0.00	1017.342	0	0.000	0
20081017 02:10	6.9	6.9	6.9	90	5.4	5	10	247	0.00	1017.409	0	0.000	0
20081017 02:15	6.9	6.9	6.9	90	5.4	2	6	247	0.00	1017.376	0	0.000	0
20081017 02:20	6.9	6.9	6.9	91	5.5	3	6	247	0.20	1017.308	0	0.000	0
20081017 02:25	6.9	6.9	6.9	91	5.5	2	6	247	0.00	1017.172	0	0.000	0
20081017 02:30	6.8	5.7	6.8	91	5.5	6	11	225	0.00	1017.105	0	0.000	0
20081017 02:35	6.8	6.8	6.8	91	5.5	5	10	225	0.00	1017.139	0	0.000	0
20081017 02:40	6.8	6.8	6.8	91	5.5	5	11	247	0.00	1017.139	0	0.000	0
20081017 02:45	6.8	6.8	6.8	90	5.3	5	14	225	0.00	1017.274	0	0.000	0
20081017 02:50	6.8	6.8	6.8	90	5.3	3	10	225	0.00	1017.274	0	0.000	0
20081017 02:55	6.8	6.8	6.8	90	5.3	3	8	247	0.20	1017.139	0	0.000	0
20081017 03:00	6.8	6.8	6.8	91	5.4	3	11	247	0.00	1017.105	0	0.000	0
20081017 03:05	6.8	6.8	6.8	91	5.5	3	11	225	0.00	1017.105	0	0.000	0
20081017 03:10	6.8	6.8	6.8	91	5.4	3	10	247	0.00	1017.172	0	0.000	0
20081017 03:15	6.8	6.8	6.8	90	5.3	3	10	225	0.00	1017.139	0	0.000	0
20081017 03:20	6.7	6.7	6.7	90	5.2	3	8	270	0.00	1017.240	0	0.000	0
20081017 03:25	6.8	6.8	6.8	91	5.4	2	8	202	0.00	1017.139	0	0.000	0
20081017 03:30	6.8	6.8	6.8	91	5.4	2	6	270	0.00	1017.172	0	0.000	0
20081017 03:35	6.8	6.8	6.8	91	5.4	3	8	247	0.00	1017.308	0	0.000	0
20081017 03:40	6.7	6.7	6.7	91	5.4	5	16	247	0.00	1017.240	0	0.000	0
20081017 03:45	6.7	6.7	6.7	91	5.3	3	10	247	0.00	1017.274	0	0.000	0
20081017 03:50	6.7	6.7	6.7	91	5.3	3	8	247	0.00	1017.206	0	0.000	0
20081017 03:55	6.6	6.6	6.6	91	5.2	3	11	247	0.00	1017.376	0	0.000	0
20081017 04:00	6.6	6.6	6.6	90	5.0	3	8	247	0.00	1017.409	0	0.000	0
20081017 04:05	6.5	6.5	6.5	90	5.0	3	10	225	0.00	1017.105	0	0.000	0
20081017 04:10	6.5	6.5	6.5	90	5.0	3	10	247	0.00	1017.139	0	0.000	0
20081017 04:15	6.4	5.3	6.4	90	4.9	6	11	247	0.00	1017.376	0	0.000	0
20081017 04:20	6.3	6.3	6.3	90	4.8	5	16	247	0.00	1017.274	0	0.000	0
20081017 04:25	6.2	4.2	6.2	89	4.5	10	23	225	0.20	1017.477	0	0.000	0
20081017 04:30	6.0	4.8	6.0	88	4.2	6	18	225	0.20	1017.409	0	0.000	0
20081017 04:35	5.9	5.9	5.9	89	4.3	3	10	225	0.20	1017.511	0	0.000	0
20081017 04:40	5.9	5.9	5.9	90	4.4	2	6	225	0.00	1017.477	0	0.000	0
20081017 04:45	5.9	5.9	5.9	90	4.4	3	6	270	0.00	1017.511	0	0.000	0
20081017 04:50	6.0	6.0	6.0	91	4.6	2	6	270	0.00	1017.579	0	0.000	0
20081017 04:55	6.1	6.1	6.1	91	4.7	3	8	270	0.00	1017.409	0	0.000	0
20081017 05:00	6.1	6.1	6.1	91	4.7	3	10	247	0.00	1017.443	0	0.000	0
20081017 05:05	6.1	6.1	6.1	91	4.8	3	8	247	0.00	1017.477	0	0.000	0
20081017 05:10	6.2	6.2	6.2	91	4.8	3	8	270	0.20	1017.579	0	0.000	0
20081017 05:15	6.1	6.1	6.1	91	4.8	3	10	270	0.20	1017.579	0	0.000	0
20081017 05:20	6.1	6.1	6.1	91	4.8	2	8	270	0.00	1017.647	0	0.000	0
20081017 05:25	6.1	6.1	6.1	91	4.7	3	10	247	0.00	1017.647	0	0.000	0
20081017 05:30	6.1	6.1	6.1	91	4.7	3	8	247	0.20	1017.714	0	0.000	0
20081017 05:35	6.1	6.1	6.1	91	4.7	5	10	247	0.00	1017.748	0	0.000	0
20081017 05:40	6.1	4.8	6.1	91	4.7	6	10	247	0.00	1017.748	0	0.000	0
20081017 05:45	6.1	6.1	6.1	91	4.7	3	10	247	0.00	1017.680	0	0.000	0
20081017 05:50	6.1	6.1	6.1	91	4.7	3	8	247	0.00	1017.647	0	0.000	0
20081017 05:55	6.0	6.0	6.0	91	4.6	3	8	247	0.00	1017.680	0	0.000	0
20081017 06:00	6.0	6.0	6.0	91	4.6	3	8	247	0.00	1017.748	0	0.000	0
20081017 06:05	5.9	5.9	5.9	91	4.6	2	6	225	0.00	1018.121	0	0.000	0
20081017 06:10	5.9	5.9	5.9	91	4.6	2	6	247	0.00	1018.087	0	0.000	0
20081017 06:15	5.9	5.9	5.9	91	4.5	2	8	247	0.00	1018.019	0	0.000	0
20081017 06:20	5.9	5.9	5.9	91	4.5	2	8	225	0.00	1018.087	0	0.000	0
20081017 06:25	5.9	5.9	5.9	91	4.5	2	5	225	0.00	1018.053	0	0.000	0
20081017 06:30	5.9	5.9	5.9	91	4.6	2	8	225	0.00	1018.087	0	0.000	0
20081017 06:35	5.9	5.9	5.9	91	4.5	2	5	225	0.00	1018.121	0	0.000	0
20081017 06:40	5.9	5.9	5.9	91	4.5	2	5	225	0.00	1018.087	0	0.000	0
20081017 06:45	5.9	5.9	5.9	91	4.5	2	3	225	0.00	1018.087	0	0.000	0
20081017 06:50	5.8	5.8	5.8	91	4.5	0	3	225	0.00	1018.087	0	0.000	0
20081017 06:55	5.8	5.8	5.8	91	4.5	2	5	225	0.00	1018.121	0	0.000	0
20081017 07:00	5.8	5.8	5.8	91	4.4	2	5	225	0.00	1018.256	0	0.000	0
20081017 07:05	5.7	5.7	5.7	91	4.4	2	6	225	0.00	1018.290	0	0.000	0
20081017 07:10	5.7	5.7	5.7	91	4.4	2	6	225	0.00	1018.358	0	0.000	0
20081017 07:15	5.6	5.6	5.6	91	4.3	3	6	225	0.00	1018.256	0	0.000	0
20081017 07:20	5.5	5.5	5.5	91	4.1	3	6	225	0.00	1018.290	0	0.000	0
20081017 07:25	5.4	5.4	5.4	91	4.1	2	6	225	0.00	1018.290	0	0.000	0
20081017 07:30	5.3	5.3	5.3	91	4.0	2	6	225	0.00	1018.324	0	0.000	0
20081017 07:35	5.3	5.3	5.3	91	3.9	2	5	225	0.00	1018.392	0	0.000	0
20081017 07:40	5.3	5.3	5.3	91	3.9	3	6	225	0.00	1018.459	0	0.000	0
20081017 07:45	5.2	5.2	5.2	91	3.9	2	6	225	0.00	1018.629	4	0.000	0
20081017 07:50	5.2	5.2	5.2	91	3.8	2	6	225	0.00	1018.629	8	0.000	0
20081017 07:55	5.2	5.2	5.2	91	3.8	3	6	225	0.00	1018.662	10	0.000	0
20081017 08:00	5.1	5.1	5.1	91	3.8	3	6	247	0.00	1018.798	15	0.000	0
20081017 08:05	5.1	5.1	5.1	92	3.9	3	6	247	0.00	1018.730	19	0.000	0
20081017 08:10	5.2	5.2	5.2	91	3.9	5	10	270	0.00	1018.798	22	0.000	0
20081017 08:15	5.3	5.3	5.3	92	4.1	3	6	247	0.00	1018.866	24	0.000	0
20081017 08:20	5.4	5.4	5.4	92	4.2	5	8	247	0.00	1018.933	24	0.000	0
20081017 08:25	5.6	5.6	5.6	91	4.2	5	11	247	0.00	1019.001	27	0.000	0
20081017 08:30	5.6	5.6	5.6	91	4.3	5	8	247	0.00	1019.069	28	0.000	0
20081017 08:35	5.7	5.7	5.7	90	4.2	5	10	247	0.00	1019.069	26	0.000	0
20081017 08:40	5.7	5.7	5.7	90	4.2	3	8	247	0.00	1019.204	28	0.000	0
20081017 08:45	5.7	5.7	5.7	89	4.1	5	10	247	0.00	1019.204	35	0.000	0
20081017 08:50	5.8	5.8	5.8	89	4.1	5	10	247	0.00	1019.340	38	0.000	0
20081017 08:55	5.8	5.8	5.8	89	4.2	3	6	247	0.00	1019.374	37	0.000	0
20081017 09:00	5.9	5.9	5.9	89	4.2	5	8	247	0.00	1019.272	46	0.020	0
20081017 09:05	5.9	5.9	5.9	89	4.3	2	5	247	0.00	1019.780	53	0.000	0
20081017 09:10	6.0	6.0	6.0	89	4.3	3	8	247	0.00	1019.712	56	0.000	0
20081017 09:15	6.1	6.1	6.1	89	4.4	2	5	247	0.00	1019.780	57	0.000	0
20081017 09:20	6.1	6.1	6.1	89	4.4	3	8	225	0.00	1019.814	69	0.000	0
20081017 09:25	6.2	6.2	6.2	88	4.4	3	6	225	0.00	1019.915	71	0.000	0
20081017 09:30	6.3	6.3	6.3	89	4.6	2	6	225	0.00	1019.949	68	0.000	0
20081017 09:35	6.3	6.3	6.3	87	4.3	3	8	270	0.00	1020.051	70	0.000	0
20081017 09:40	6.3	6.3	6.3	86	4.1	3	10	270	0.00	1019.983	61	0.000	0
20081017 09:45	6.3	6.3	6.3	87	4.3	3	8	247	0.00	1020.051	50	0.000	0
20081017 09:50	6.3	6.3	6.3	86	4.2	5	10	247	0.00	1020.119	47	0.000	0
20081017 09:55	6.5	6.5	6.5	87	4.5	3	8	247	0.00	1020.051	55	0.000	0
20081017 10:00	6.7	6.7	6.7	86	4.5	5	10	247	0.00	1020.152	92	0.020	1
20081017 10:05	6.9	5.8	6.9	86	4.8	6	10	247	0.00	1020.152	142	0.000	1
20081017 10:10	7.2	6.2	7.2	84	4.7	6	14	247	0.00	1020.152	159	0.000	1
20081017 10:15	7.3	7.3	7.3	84	4.8	3	6	247	0.00	1020.186	84	0.000	0
20081017 10:20	7.2	7.2	7.2	82	4.4	5	8	247	0.00	1020.220	107	0.000	1
20081017 10:25	7.3	7.3	7.3	84	4.8	2	6	247	0.00	1020.186	117	0.000	1
20081017 10:30	7.3	7.3	7.3	83	4.6	3	10	225	0.00	1020.119	132	0.000	0
20081017 10:35	7.4	7.4	7.4	83	4.7	3	8	247	0.00	1020.254	67	0.000	0
20081017 10:40	7.3	7.3	7.3	83	4.6	5	11	270	0.00	1020.254	92	0.000	0
20081017 10:45	7.3	7.3	7.3	83	4.6	5	10	270	0.00	1020.254	110	0.000	1
20081017 10:50	7.3	6.2	7.3	82	4.4	6	10	270	0.00	1020.254	82	0.000	0
20081017 10:55	7.2	7.2	7.2	83	4.5	5	11	247	0.00	1020.220	62	0.000	0
20081017 11:00	7.2	6.2	7.2	83	4.5	6	11	292	0.00	1020.220	46	0.040	0
20081017 11:05	7.2	7.2	7.2	84	4.7	5	10	292	0.00	1020.288	66	0.000	1
20081017 11:10	7.2	5.7	7.2	82	4.3	8	14	270	0.00	1020.423	75	0.000	1
20081017 11:15	7.1	5.6	7.1	82	4.2	8	14	270	0.00	1020.356	60	0.000	1
20081017 11:20	7.1	5.6	7.1	82	4.2	8	14	270	0.00	1020.423	68	0.000	1
20081017 11:25	7.2	7.2	7.2	84	4.7	5	14	270	0.00	1020.457	147	0.000	2
20081017 11:30	7.4	6.4	7.4	81	4.4	6	16	270	0.00	1020.457	123	0.000	1
20081017 11:35	7.6	7.6	7.6	82	4.7	5	11	270	0.00	1020.356	93	0.000	1
20081017 11:40	7.6	7.6	7.6	81	4.5	5	10	247	0.00	1020.390	85	0.000	1
20081017 11:45	7.6	7.6	7.6	83	4.9	3	10	270	0.00	1020.356	96	0.000	1
20081017 11:50	7.5	6.5	7.5	81	4.5	6	11	270	0.00	1020.356	61	0.000	1
20081017 11:55	7.3	7.3	7.3	82	4.5	5	8	270	0.00	1020.525	59	0.000	1
20081017 12:00	7.3	6.3	7.3	82	4.5	6	13	270	0.00	1020.525	105	0.040	2
20081017 12:05	7.3	7.3	7.3	82	4.5	5	10	270	0.00	1020.593	87	0.000	2
20081017 12:10	7.3	6.3	7.3	81	4.3	6	11	270	0.00	1020.593	92	0.000	2
20081017 12:15	7.7	6.7	7.7	82	4.8	6	11	270	0.00	1020.457	464	0.000	3
20081017 12:20	8.3	7.0	8.3	79	4.9	8	16	270	0.00	1020.356	515	0.000	3
20081017 12:25	8.7	7.8	8.7	76	4.7	6	16	247	0.00	1020.356	538	0.000	3
20081017 12:30	8.9	7.8	8.9	75	4.8	8	16	270	0.00	1020.220	587	0.000	3
20081017 12:35	9.4	8.7	9.4	72	4.6	6	11	247	0.00	1020.152	593	0.000	3
20081017 12:40	9.7	8.1	9.7	69	4.3	11	21	270	0.00	1020.017	622	0.000	3
20081017 12:45	9.9	8.4	9.9	72	5.1	11	32	292	0.00	1020.017	579	0.000	3
20081017 12:50	9.8	7.9	9.8	67	3.9	13	31	292	0.00	1020.051	442	0.000	2
20081017 12:55	9.6	8.2	9.6	68	3.9	10	19	292	0.00	1020.152	149	0.000	2
20081017 13:00	9.1	7.6	9.1	70	3.9	10	23	315	0.00	1020.085	94	0.160	2
20081017 13:05	8.8	8.0	8.8	71	3.8	6	16	247	0.00	1020.152	224	0.000	2
20081017 13:10	8.8	6.6	8.8	70	3.7	14	26	292	0.00	1020.051	523	0.000	2
20081017 13:15	9.1	8.0	9.1	69	3.7	8	16	292	0.00	1020.017	248	0.000	2
20081017 13:20	9.2	7.4	9.2	67	3.4	11	24	292	0.00	1019.949	441	0.000	3
20081017 13:25	9.4	7.7	9.4	66	3.4	11	23	270	0.00	1019.983	381	0.000	2
20081017 13:30	9.6	8.2	9.6	65	3.3	10	18	270	0.00	1020.051	515	0.000	2
20081017 13:35	9.8	8.7	9.8	64	3.3	8	18	292	0.00	1019.848	533	0.000	3
20081017 13:40	9.9	8.6	9.9	67	4.1	10	21	292	0.00	1019.814	534	0.000	3
20081017 13:45	9.9	7.7	9.9	61	2.7	16	23	292	0.00	1019.848	157	0.000	2
20081017 13:50	9.5	7.8	9.5	63	2.8	11	19	292	0.00	1019.983	168	0.000	2
20081017 13:55	9.3	7.6	9.3	65	3.1	11	19	315	0.00	1019.983	143	0.000	2
20081017 14:00	9.3	8.6	9.3	66	3.3	6	11	270	0.00	1019.915	121	0.140	2
20081017 14:05	9.3	8.2	9.3	65	3.1	8	21	292	0.00	1019.848	397	0.000	2
20081017 14:10	9.6	8.2	9.6	65	3.4	10	19	315	0.00	1019.915	567	0.000	2
20081017 14:15	9.9	8.9	9.9	65	3.7	8	18	292	0.00	1019.814	547	0.000	2
20081017 14:20	10.2	10.2	10.2	61	3.0	10	18	292	0.00	1019.780	465	0.000	2
20081017 14:25	10.0	10.0	10.0	62	3.1	5	14	270	0.00	1019.678	410	0.000	2
20081017 14:30	10.3	10.3	10.3	61	3.1	6	16	315	0.00	1019.678	530	0.000	2
20081017 14:35	10.6	10.6	10.6	62	3.6	6	18	292	0.00	1019.712	280	0.000	2
20081017 14:40	10.4	10.4	10.4	58	2.5	11	27	270	0.00	1019.678	165	0.000	1
20081017 14:45	10.3	10.3	10.3	58	2.4	10	18	292	0.00	1019.746	540	0.000	2
20081017 14:50	10.7	10.7	10.7	58	2.7	8	18	247	0.00	1019.712	476	0.000	2
20081017 14:55	10.8	10.8	10.8	57	2.7	6	18	292	0.00	1019.577	438	0.000	2
20081017 15:00	10.6	10.6	10.6	59	2.9	5	14	292	0.00	1019.678	234	0.180	2
20081017 15:05	10.2	10.2	10.2	58	2.3	10	18	292	0.00	1019.712	105	0.000	1
20081017 15:10	9.8	8.8	9.8	61	2.7	8	19	292	0.00	1019.780	158	0.000	1
20081017 15:15	9.8	8.8	9.8	61	2.7	8	14	292	0.00	1019.678	288	0.000	1
20081017 15:20	10.2	10.2	10.2	58	2.3	8	16	270	0.00	1019.712	236	0.000	1
20081017 15:25	10.4	10.4	10.4	58	2.5	6	16	270	0.00	1019.712	168	0.000	1
20081017 15:30	10.3	10.3	10.3	56	1.9	8	16	270	0.00	1019.678	209	0.000	1
20081017 15:35	10.2	10.2	10.2	57	2.0	10	19	315	0.00	1019.746	168	0.000	1
20081017 15:40	10.3	10.3	10.3	59	2.6	8	14	270	0.00	1019.712	173	0.000	1
20081017 15:45	10.4	10.4	10.4	58	2.5	10	21	292	0.00	1019.645	147	0.000	1
20081017 15:50	10.3	10.3	10.3	59	2.6	11	21	315	0.00	1019.746	126	0.000	1
20081017 15:55	10.1	10.1	10.1	59	2.4	8	19	315	0.00	1019.746	90	0.000	1
20081017 16:00	9.9	8.4	9.9	59	2.3	11	21	292	0.00	1019.746	94	0.100	1
20081017 16:05	9.8	8.2	9.8	60	2.4	11	21	292	0.00	1019.882	64	0.000	1
20081017 16:10	9.8	8.2	9.8	58	2.0	11	23	292	0.00	1019.882	57	0.000	0
20081017 16:15	9.8	8.8	9.8	58	2.0	8	14	292	0.00	1019.915	54	0.000	0
20081017 16:20	9.8	9.2	9.8	59	2.2	6	11	292	0.00	1019.780	47	0.000	0
20081017 16:25	9.9	8.9	9.9	58	2.0	8	16	292	0.00	1019.848	48	0.000	0
20081017 16:30	9.8	8.8	9.8	55	1.2	8	18	292	0.00	1019.848	46	0.000	0
20081017 16:35	9.8	8.7	9.8	54	0.9	8	18	292	0.00	1019.814	49	0.000	0
20081017 16:40	9.8	8.4	9.8	54	0.9	10	19	270	0.00	1019.814	42	0.000	0
20081017 16:45	9.8	8.8	9.8	53	0.7	8	16	270	0.00	1019.814	42	0.000	0
20081017 16:50	9.8	9.1	9.8	52	0.4	6	11	270	0.00	1019.882	42	0.000	0
20081017 16:55	9.8	9.1	9.8	53	0.7	6	11	270	0.00	1019.848	40	0.000	0
20081017 17:00	9.7	8.3	9.7	55	1.1	10	16	315	0.00	1019.882	41	0.060	0
20081017 17:05	9.6	8.2	9.6	54	0.8	10	16	292	0.00	1019.949	38	0.000	0
20081017 17:10	9.6	8.2	9.6	56	1.2	10	21	292	0.00	1019.949	35	0.000	0
20081017 17:15	9.4	8.7	9.4	59	1.8	6	11	292	0.00	1020.017	33	0.000	0
20081017 17:20	9.3	7.9	9.3	58	1.5	10	19	292	0.00	1020.017	31	0.000	0
20081017 17:25	9.2	9.2	9.2	60	1.9	5	11	315	0.00	1020.051	32	0.000	0
20081017 17:30	9.0	9.0	9.0	61	1.9	5	10	315	0.00	1020.152	27	0.000	0
20081017 17:35	8.8	8.8	8.8	64	2.4	2	6	292	0.00	1020.254	25	0.000	0
20081017 17:40	8.7	8.7	8.7	65	2.5	5	11	315	0.00	1020.288	23	0.000	0
20081017 17:45	8.5	8.5	8.5	66	2.5	3	10	315	0.00	1020.322	21	0.000	0
20081017 17:50	8.3	8.3	8.3	67	2.6	2	6	315	0.00	1020.288	18	0.000	0
20081017 17:55	8.2	8.2	8.2	68	2.6	3	8	315	0.00	1020.356	18	0.000	0
20081017 18:00	8.1	8.1	8.1	67	2.3	5	8	292	0.00	1020.356	16	0.020	0
20081017 18:05	7.9	7.9	7.9	67	2.1	5	10	315	0.00	1020.559	13	0.000	0
20081017 18:10	7.8	7.8	7.8	68	2.3	2	5	292	0.00	1020.660	11	0.000	0
20081017 18:15	7.7	7.7	7.7	68	2.2	2	6	292	0.00	1020.660	8	0.000	0
20081017 18:20	7.6	7.6	7.6	68	2.1	0	2	292	0.00	1020.627	6	0.000	0
20081017 18:25	7.5	7.5	7.5	69	2.2	0	0	292	0.00	1020.762	3	0.000	0
20081017 18:30	7.4	7.4	7.4	69	2.1	0	3	292	0.00	1020.965	0	0.000	0
20081017 18:35	7.3	7.3	7.3	70	2.2	0	3	292	0.00	1020.999	0	0.000	0
20081017 18:40	7.2	7.2	7.2	71	2.3	0	3	292	0.00	1021.067	0	0.000	0
20081017 18:45	7.2	7.2	7.2	72	2.5	0	2	292	0.00	1021.067	0	0.000	0
20081017 18:50	7.1	7.1	7.1	72	2.4	0	3	292	0.00	1021.067	0	0.000	0
20081017 18:55	6.9	6.9	6.9	72	2.2	0	2	292	0.00	1021.067	0	0.000	0
20081017 19:00	6.8	6.8	6.8	72	2.1	0	3	292	0.00	1021.134	0	0.000	0
20081017 19:05	6.8	6.8	6.8	73	2.3	0	2	292	0.00	1021.338	0	0.000	0
20081017 19:10	6.8	6.8	6.8	72	2.1	0	0	292	0.00	1021.439	0	0.000	0
20081017 19:15	6.7	6.7	6.7	73	2.2	0	2	292	0.00	1021.541	0	0.000	0
20081017 19:20	6.5	6.5	6.5	74	2.2	0	0	292	0.00	1021.676	0	0.000	0
20081017 19:25	6.3	6.3	6.3	76	2.4	0	0	292	0.00	1021.676	0	0.000	0
20081017 19:30	6.2	6.2	6.2	77	2.4	0	0	292	0.00	1021.676	0	0.000	0
20081017 19:35	6.0	6.0	6.0	78	2.5	0	0	292	0.00	1021.710	0	0.000	0
20081017 19:40	5.8	5.8	5.8	79	2.4	0	0	292	0.00	1021.778	0	0.000	0
20081017 19:45	5.6	5.6	5.6	80	2.4	0	0	292	0.00	1021.880	0	0.000	0
20081017 19:50	5.4	5.4	5.4	80	2.3	0	0	292	0.00	1021.981	0	0.000	0
20081017 19:55	5.3	5.3	5.3	81	2.3	0	0	292	0.00	1021.981	0	0.000	0
20081017 20:00	5.3	5.3	5.3	81	2.3	0	0	292	0.00	1021.947	0	0.020	0
20081017 20:05	5.2	5.2	5.2	82	2.4	0	0	292	0.00	1021.812	0	0.000	0
20081017 20:10	5.2	5.2	5.2	82	2.3	0	2	292	0.00	1021.846	0	0.000	0
20081017 20:15	5.2	5.2	5.2	81	2.2	0	2	292	0.00	1021.880	0	0.000	0
20081017 20:20	5.3	5.3	5.3	81	2.3	0	2	292	0.00	1021.913	0	0.000	0
20081017 20:25	5.2	5.2	5.2	81	2.2	0	2	292	0.00	1022.015	0	0.000	0
20081017 20:30	5.2	5.2	5.2	81	2.2	0	2	292	0.00	1021.981	0	0.000	0
20081017 20:35	5.1	5.1	5.1	81	2.1	0	2	292	0.00	1022.049	0	0.000	0
20081017 20:40	5.0	5.0	5.0	82	2.2	0	2	292	0.00	1022.117	0	0.000	0
20081017 20:45	4.9	4.9	4.9	82	2.1	0	0	292	0.00	1022.083	0	0.000	0
20081017 20:50	4.8	4.8	4.8	82	2.0	0	2	270	0.00	1022.083	0	0.000	0
20081017 20:55	4.8	4.8	4.8	82	2.0	0	2	270	0.00	1022.117	0	0.000	0
20081017 21:00	4.7	4.7	4.7	82	1.9	0	0	270	0.00	1022.252	0	0.000	0
20081017 21:05	4.6	4.6	4.6	82	1.8	0	0	270	0.00	1022.150	0	0.000	0
20081017 21:10	4.4	4.4	4.4	83	1.8	0	0	270	0.00	1022.218	0	0.000	0
20081017 21:15	4.3	4.3	4.3	83	1.7	0	0	270	0.00	1022.218	0	0.000	0
20081017 21:20	4.3	4.3	4.3	84	1.9	0	2	157	0.00	1022.320	0	0.000	0
20081017 21:25	4.4	4.4	4.4	84	1.9	0	3	157	0.00	1022.286	0	0.000	0
20081017 21:30	4.4	4.4	4.4	84	1.9	0	2	157	0.00	1022.320	0	0.000	0
20081017 21:35	4.4	4.4	4.4	84	2.0	0	2	157	0.00	1022.354	0	0.000	0
20081017 21:40	4.4	4.4	4.4	83	1.8	0	2	157	0.00	1022.421	0	0.000	0
20081017 21:45	4.4	4.4	4.4	83	1.8	0	2	157	0.00	1022.387	0	0.000	0
20081017 21:50	4.4	4.4	4.4	83	1.8	0	0	157	0.00	1022.421	0	0.000	0
20081017 21:55	4.4	4.4	4.4	83	1.8	0	2	157	0.00	1022.421	0	0.000	0
20081017 22:00	4.3	4.3	4.3	83	1.7	0	3	157	0.00	1022.455	0	0.000	0
20081017 22:05	4.3	4.3	4.3	84	1.9	0	2	157	0.00	1022.455	0	0.000	0
20081017 22:10	4.3	4.3	4.3	84	1.8	0	2	157	0.00	1022.421	0	0.000	0
20081017 22:15	4.2	4.2	4.2	84	1.8	0	2	157	0.00	1022.455	0	0.000	0
20081017 22:20	4.1	4.1	4.1	84	1.7	0	0	157	0.00	1022.523	0	0.000	0
20081017 22:25	4.1	4.1	4.1	84	1.6	0	0	157	0.00	1022.591	0	0.000	0
20081017 22:30	3.9	3.9	3.9	85	1.7	0	0	157	0.00	1022.591	0	0.000	0
20081017 22:35	3.8	3.8	3.8	85	1.5	0	0	157	0.00	1022.658	0	0.000	0
20081017 22:40	3.7	3.7	3.7	85	1.4	0	0	157	0.00	1022.591	0	0.000	0
20081017 22:45	3.7	3.7	3.7	85	1.4	0	3	157	0.00	1022.625	0	0.000	0
20081017 22:50	3.6	3.6	3.6	85	1.3	0	5	157	0.00	1022.625	0	0.000	0
20081017 22:55	3.6	3.6	3.6	86	1.4	0	2	157	0.00	1022.760	0	0.000	0
20081017 23:00	3.5	3.5	3.5	86	1.4	0	2	157	0.00	1022.760	0	0.000	0
20081017 23:05	3.4	3.4	3.4	86	1.3	0	2	157	0.00	1022.658	0	0.000	0
20081017 23:10	3.3	3.3	3.3	87	1.4	0	0	157	0.00	1022.692	0	0.000	0
20081017 23:15	3.3	3.3	3.3	87	1.3	0	2	157	0.00	1022.692	0	0.000	0
20081017 23:20	3.3	3.3	3.3	87	1.3	0	2	157	0.00	1022.658	0	0.000	0
20081017 23:25	3.2	3.2	3.2	86	1.1	0	2	157	0.00	1022.658	0	0.000	0
20081017 23:30	3.2	3.2	3.2	86	1.1	0	3	157	0.00	1022.658	0	0.000	0
20081017 23:35	3.1	3.1	3.1	86	0.9	0	3	157	0.00	1022.625	0	0.000	0
20081017 23:40	2.9	2.9	2.9	86	0.8	0	0	157	0.00	1022.557	0	0.000	0
20081017 23:45	2.8	2.8	2.8	86	0.7	0	0	157	0.00	1022.557	0	0.000	0
20081017 23:50	2.7	2.7	2.7	87	0.7	0	0	157	0.00	1022.557	0	0.000	0
20081017 23:55	2.7	2.7	2.7	87	0.7	0	2	157	0.00	1022.625	0	0.000	0
20081017 24:00	2.7	2.7	2.7	87	0.7	0	2	157	0.00	1022.591	0	0.000	0



Please note the license to use and transfer of this data:
http://creativecommons.org/licenses/by-nc-sa/3.0/deed.en

Bitte beachten sie die Lizenz zur Verwertung und Weitergabe der Daten:
http://creativecommons.org/licenses/by-nc-sa/3.0/deed.de

zurück zur Übersicht der Archivdaten (Monats und Tagesdaten)

Cookies helfen bei der Bereitstellung von Inhalten. Durch die Nutzung dieser Seiten erklärst du dich damit einverstanden, dass Cookies auf deinem Rechner gespeichert werden. Weitere Information